Merion Park, Pennsylvania
Current Conditions -  °F | °C
As of 4:54 AM on Tuesday 21 Oct 2014 (Local Time) from KPHL Reporting Station
Overcast Overcast  
Wind Chill: 54°   Ceiling: 10000
Heat Index: 54°   Visibility: 10mi
Dew Point: 48°   Wind: 0mph
Humidity: 80%   Direction: NA
Pressure: 29.89"   Gusts: NA
Location:  40.0023°N, 75.2493°W
Report Text: KPHL 210854Z 00000KT 10SM SCT060 BKN100 OVC160 12/09 A2989 RMK AO2 RAB34E45 SLP121 P0000 60000 T01220089 58014
Loading
Personal Weather Stations






























Interactive Weather Map
Tropical Storm Tracking
New forecast layout! Learn more

10-Day Weather Forecast

Advertisements
Track Severe Weather on mobile